createdAt,value
2023-02-23T00:00:57.622Z,100100.22
2023-02-23T00:02:05.888Z,100099.66
2023-02-23T00:03:07.575Z,100100.69
2023-02-23T00:04:10.356Z,100100.91
2023-02-23T00:05:11.913Z,100099.03
2023-02-23T00:06:14.642Z,100100.91
2023-02-23T00:07:19.287Z,100094.94
2023-02-23T00:08:23.499Z,100103.59
2023-02-23T00:09:25.127Z,100098.69
2023-02-23T00:10:30.487Z,100097.03
2023-02-23T00:11:33.752Z,100089.69
2023-02-23T00:12:36.212Z,100091.91
2023-02-23T00:13:38.863Z,100092.00
2023-02-23T00:14:41.398Z,100090.31
2023-02-23T00:15:44.454Z,100093.53
2023-02-23T00:16:47.063Z,100096.50
2023-02-23T00:17:48.594Z,100106.25
2023-02-23T00:18:53.872Z,100095.66
2023-02-23T00:19:55.617Z,100097.00
2023-02-23T00:20:58.721Z,100094.84
2023-02-23T00:22:01.107Z,100096.78
2023-02-23T00:23:04.564Z,100093.56
2023-02-23T00:24:08.890Z,100104.13
2023-02-23T00:25:12.630Z,100094.59
2023-02-23T00:26:14.115Z,100096.78
2023-02-23T00:27:19.031Z,100104.94
2023-02-23T00:28:20.580Z,100093.81
2023-02-23T00:29:25.688Z,100100.56
2023-02-23T00:30:27.321Z,100102.75
2023-02-23T00:31:31.560Z,100105.44
2023-02-23T00:32:33.157Z,100104.06
2023-02-23T00:33:35.660Z,100101.38
2023-02-23T00:34:37.259Z,100108.34
2023-02-23T00:35:39.745Z,100112.97
2023-02-23T00:36:42.088Z,100106.69
2023-02-23T00:37:45.883Z,100108.28
2023-02-23T00:38:47.425Z,100118.38
2023-02-23T00:39:50.245Z,100114.97
2023-02-23T00:40:51.757Z,100117.13
2023-02-23T00:41:55.700Z,100110.63
2023-02-23T00:42:58.132Z,100108.16
2023-02-23T00:44:01.924Z,100106.47
2023-02-23T00:45:08.682Z,100107.53
2023-02-23T00:46:11.484Z,100102.91
2023-02-23T00:47:14.339Z,100111.03
2023-02-23T00:48:16.868Z,100113.28
2023-02-23T00:49:20.064Z,100110.09
2023-02-23T00:50:23.222Z,100111.09
2023-02-23T00:51:27.425Z,100116.81
2023-02-23T00:52:29.937Z,100113.47
2023-02-23T00:53:32.172Z,100105.06
2023-02-23T00:54:34.773Z,100108.13
2023-02-23T00:55:40.488Z,100101.72
2023-02-23T00:56:43.355Z,100103.94
2023-02-23T00:57:44.900Z,100107.91
2023-02-23T00:58:47.317Z,100107.75
2023-02-23T00:59:49.022Z,100108.03
2023-02-23T01:00:51.699Z,100101.50
2023-02-23T01:01:53.167Z,100109.31
2023-02-23T01:02:56.906Z,100104.16
2023-02-23T01:03:58.687Z,100109.13
2023-02-23T01:05:01.277Z,100100.59
2023-02-23T01:06:07.972Z,100101.78
2023-02-23T01:07:12.916Z,100108.63
2023-02-23T01:08:15.390Z,100097.75
2023-02-23T01:09:27.129Z,100094.41
2023-02-23T01:10:28.734Z,100100.09
2023-02-23T01:11:31.874Z,100099.44
2023-02-23T01:12:33.395Z,100101.56
2023-02-23T01:13:36.367Z,100097.28
2023-02-23T01:14:38.037Z,100099.19
2023-02-23T01:15:44.430Z,100092.56
2023-02-23T01:16:46.202Z,100093.28
2023-02-23T01:17:48.694Z,100095.19
2023-02-23T01:18:51.648Z,100101.13
2023-02-23T01:19:55.183Z,100098.47
2023-02-23T01:20:56.768Z,100097.84
2023-02-23T01:21:59.278Z,100099.56
2023-02-23T01:23:01.729Z,100100.22
2023-02-23T01:24:05.107Z,100090.19
2023-02-23T01:25:07.195Z,100087.75
2023-02-23T01:26:16.410Z,100082.88
2023-02-23T01:27:17.906Z,100087.22
2023-02-23T01:28:20.567Z,100089.13
2023-02-23T01:29:22.119Z,100080.16
2023-02-23T01:30:24.620Z,100092.66
2023-02-23T01:31:27.719Z,100093.75
2023-02-23T01:32:31.515Z,100091.31
2023-02-23T01:33:33.129Z,100094.59
2023-02-23T01:34:37.006Z,100088.88
2023-02-23T01:35:38.485Z,100097.28
2023-02-23T01:36:42.972Z,100085.03
2023-02-23T01:37:44.492Z,100095.09
2023-02-23T01:38:46.985Z,100089.97
2023-02-23T01:39:48.666Z,100082.91
2023-02-23T01:40:51.214Z,100087.78
2023-02-23T01:41:54.200Z,100087.22
2023-02-23T01:42:59.281Z,100085.03
2023-02-23T01:44:04.028Z,100093.97
2023-02-23T01:45:32.090Z,100081.75
2023-02-23T01:46:35.450Z,100083.09
2023-02-23T01:47:38.101Z,100090.41
2023-02-23T01:48:41.469Z,100088.50
2023-02-23T01:49:44.693Z,100085.81
2023-02-23T01:50:53.024Z,100089.13
2023-02-23T01:51:59.540Z,100084.25
2023-02-23T01:53:02.421Z,100086.13
2023-02-23T01:54:08.949Z,100081.22
2023-02-23T01:55:14.079Z,100082.31
2023-02-23T01:56:22.130Z,100075.53
2023-02-23T01:57:24.998Z,100077.94
2023-02-23T01:58:29.965Z,100076.59
2023-02-23T01:59:38.076Z,100078.22
2023-02-23T02:00:42.104Z,100076.88
2023-02-23T02:01:44.091Z,100080.69
2023-02-23T02:02:49.037Z,100076.88
2023-02-23T02:03:55.488Z,100076.91
2023-02-23T02:05:00.201Z,100070.34
2023-02-23T02:06:03.898Z,100069.88
2023-02-23T02:07:07.851Z,100076.38
2023-02-23T02:08:10.584Z,100071.19
2023-02-23T02:09:17.637Z,100068.75
2023-02-23T02:10:37.589Z,100068.75
2023-02-23T02:11:44.391Z,100080.44
2023-02-23T02:12:51.992Z,100067.34
2023-02-23T02:13:56.994Z,100070.06
2023-02-23T02:14:59.888Z,100073.66
2023-02-23T02:16:16.629Z,100070.13
2023-02-23T02:17:31.913Z,100073.09
2023-02-23T02:18:41.803Z,100065.22
2023-02-23T02:20:32.703Z,100061.16
2023-02-23T02:22:11.833Z,100065.75
2023-02-23T02:23:58.885Z,100066.56
2023-02-23T02:25:20.664Z,100064.59
2023-02-23T02:26:32.271Z,100069.19
2023-02-23T02:27:57.900Z,100065.97
2023-02-23T02:29:46.098Z,100066.50
2023-02-23T02:31:21.036Z,100061.03
2023-02-23T02:32:48.628Z,100070.22
2023-02-23T02:34:07.977Z,100068.66
2023-02-23T02:35:35.032Z,100067.47
2023-02-23T02:37:10.948Z,100067.06
2023-02-23T02:38:31.387Z,100060.81
2023-02-23T02:39:44.881Z,100063.25
2023-02-23T02:40:54.248Z,100062.25
2023-02-23T02:42:06.458Z,100050.31
2023-02-23T02:43:15.438Z,100050.81
2023-02-23T02:44:22.117Z,100061.94
2023-02-23T02:45:31.707Z,100063.78
2023-02-23T02:46:38.754Z,100056.69
2023-02-23T02:47:48.679Z,100047.44
2023-02-23T02:48:57.810Z,100057.69
2023-02-23T02:50:09.358Z,100060.69
2023-02-23T02:51:21.961Z,100060.34
2023-02-23T02:52:30.464Z,100059.22
2023-02-23T02:53:41.753Z,100056.75
2023-02-23T02:54:49.665Z,100056.44
2023-02-23T02:55:52.886Z,100056.78
2023-02-23T02:57:00.436Z,100045.66
2023-02-23T02:58:07.678Z,100057.38
2023-02-23T02:59:31.458Z,100052.78
2023-02-23T03:00:56.103Z,100064.75
2023-02-23T03:02:16.832Z,100062.94
2023-02-23T03:03:52.322Z,100057.69
2023-02-23T03:05:12.463Z,100060.63
2023-02-23T03:06:33.302Z,100055.16
2023-02-23T03:08:01.217Z,100063.59
2023-02-23T03:09:30.276Z,100063.38
2023-02-23T03:10:58.275Z,100060.91
2023-02-23T03:12:26.094Z,100057.88
2023-02-23T03:13:56.108Z,100047.22
2023-02-23T03:15:26.272Z,100057.50
2023-02-23T03:16:58.155Z,100056.78
2023-02-23T03:18:35.461Z,100060.00
2023-02-23T03:20:06.944Z,100058.03
2023-02-23T03:21:34.718Z,100064.50
2023-02-23T03:23:02.303Z,100060.63
2023-02-23T03:24:36.061Z,100058.19
2023-02-23T03:26:06.554Z,100052.44
2023-02-23T03:27:33.858Z,100067.63
2023-02-23T03:28:57.600Z,100065.72
2023-02-23T03:30:23.626Z,100068.44
2023-02-23T03:31:52.740Z,100064.16
2023-02-23T03:33:17.027Z,100064.69
2023-02-23T03:34:41.905Z,100068.00
2023-02-23T03:36:09.728Z,100068.00
2023-02-23T03:37:36.973Z,100063.66
2023-02-23T03:39:04.857Z,100066.97
2023-02-23T03:40:31.916Z,100063.94
2023-02-23T03:41:54.558Z,100063.91
2023-02-23T03:43:18.311Z,100063.63
2023-02-23T03:44:44.708Z,100074.19
2023-02-23T03:46:08.225Z,100074.72
2023-02-23T03:47:32.858Z,100064.66
2023-02-23T03:48:55.388Z,100070.09
2023-02-23T03:50:21.915Z,100070.69
2023-02-23T03:51:44.606Z,100072.28
2023-02-23T03:53:10.375Z,100070.63
2023-02-23T03:54:36.130Z,100066.31
2023-02-23T03:56:01.442Z,100077.19
2023-02-23T03:57:25.890Z,100072.34
2023-02-23T03:58:50.529Z,100073.94
2023-02-23T04:00:14.104Z,100078.53
2023-02-23T04:01:36.435Z,100073.72
2023-02-23T04:02:59.852Z,100076.75
2023-02-23T04:04:21.644Z,100080.53
2023-02-23T04:05:42.734Z,100072.31
2023-02-23T04:07:05.699Z,100073.94
2023-02-23T04:08:30.881Z,100073.66
2023-02-23T04:09:52.324Z,100078.03
2023-02-23T04:11:19.534Z,100077.53
2023-02-23T04:12:45.012Z,100070.72
2023-02-23T04:13:51.770Z,100075.09
2023-02-23T04:14:57.528Z,100080.88
2023-02-23T04:16:03.195Z,100074.97
2023-02-23T04:17:06.334Z,100077.13
2023-02-23T04:18:14.937Z,100081.19
2023-02-23T04:19:16.530Z,100076.31
2023-02-23T04:20:19.096Z,100074.75
2023-02-23T04:21:21.191Z,100076.38
2023-02-23T04:22:24.640Z,100071.47
2023-02-23T04:23:27.089Z,100075.50
2023-02-23T04:24:29.539Z,100080.09
2023-02-23T04:25:32.494Z,100080.84
2023-02-23T04:26:34.992Z,100080.31
2023-02-23T04:27:36.869Z,100071.06
2023-02-23T04:28:39.363Z,100076.16
2023-02-23T04:29:40.988Z,100078.31
2023-02-23T04:30:43.558Z,100085.94
2023-02-23T04:31:46.219Z,100079.91
2023-02-23T04:32:48.885Z,100084.53
2023-02-23T04:33:55.032Z,100081.78
2023-02-23T04:34:57.487Z,100084.50
2023-02-23T04:35:59.005Z,100085.03
2023-02-23T04:37:01.534Z,100088.28
2023-02-23T04:38:04.042Z,100084.84
2023-02-23T04:39:06.577Z,100086.31
2023-02-23T04:40:09.461Z,100091.03
2023-02-23T04:41:13.570Z,100085.59
2023-02-23T04:42:15.447Z,100087.69
2023-02-23T04:43:17.942Z,100085.38
2023-02-23T04:44:19.680Z,100085.44
2023-02-23T04:45:25.057Z,100085.44
2023-02-23T04:46:26.683Z,100089.00
2023-02-23T04:47:29.209Z,100083.59
2023-02-23T04:48:30.755Z,100086.13
2023-02-23T04:49:33.209Z,100081.78
2023-02-23T04:50:34.840Z,100087.22
2023-02-23T04:51:37.389Z,100079.59
2023-02-23T04:52:39.012Z,100078.53
2023-02-23T04:53:41.505Z,100085.88
2023-02-23T04:54:43.316Z,100085.63
2023-02-23T04:55:47.372Z,100082.31
2023-02-23T04:56:50.261Z,100080.13
2023-02-23T04:57:54.155Z,100079.56
2023-02-23T04:58:55.668Z,100083.34
2023-02-23T04:59:58.379Z,100088.00
2023-02-23T05:01:04.793Z,100087.72
2023-02-23T05:02:07.537Z,100090.44
2023-02-23T05:03:09.279Z,100081.41
2023-02-23T05:04:11.782Z,100086.94
2023-02-23T05:05:13.265Z,100095.34
2023-02-23T05:06:15.855Z,100082.81
2023-02-23T05:07:17.496Z,100085.50
2023-02-23T05:08:19.945Z,100090.91
2023-02-23T05:09:21.461Z,100085.25
2023-02-23T05:10:24.134Z,100084.41
2023-02-23T05:11:26.576Z,100077.84
2023-02-23T05:12:30.732Z,100082.72
2023-02-23T05:13:32.544Z,100086.31
2023-02-23T05:14:35.052Z,100088.78
2023-02-23T05:15:37.285Z,100085.56
2023-02-23T05:16:40.430Z,100084.53
2023-02-23T05:17:42.486Z,100080.19
2023-02-23T05:18:45.060Z,100079.63
2023-02-23T05:19:46.608Z,100079.34
2023-02-23T05:20:49.058Z,100087.25
2023-02-23T05:21:50.683Z,100083.69
2023-02-23T05:22:53.121Z,100079.56
2023-02-23T05:23:54.746Z,100078.19
2023-02-23T05:24:57.599Z,100080.31
2023-02-23T05:26:04.141Z,100080.84
2023-02-23T05:27:06.663Z,100073.06
2023-02-23T05:28:09.523Z,100085.63
2023-02-23T05:29:12.072Z,100073.66
2023-02-23T05:30:13.909Z,100080.19
2023-02-23T05:31:17.336Z,100086.41
2023-02-23T05:32:19.094Z,100085.59
2023-02-23T05:33:21.788Z,100085.03
2023-02-23T05:34:24.135Z,100079.56
2023-02-23T05:35:26.690Z,100083.88
2023-02-23T05:36:28.763Z,100077.84
2023-02-23T05:37:31.232Z,100081.66
2023-02-23T05:38:32.715Z,100083.09
2023-02-23T05:39:35.511Z,100082.84
2023-02-23T05:40:37.952Z,100080.88
2023-02-23T05:41:39.897Z,100083.56
2023-02-23T05:42:42.377Z,100088.69
2023-02-23T05:43:45.288Z,100078.63
2023-02-23T05:44:47.761Z,100081.59
2023-02-23T05:45:49.207Z,100087.03
2023-02-23T05:46:51.655Z,100084.00
2023-02-23T05:47:53.197Z,100070.50
2023-02-23T05:48:58.135Z,100085.69
2023-02-23T05:50:00.027Z,100088.13
2023-02-23T05:51:03.518Z,100094.63
2023-02-23T05:52:05.215Z,100091.59
2023-02-23T05:53:07.889Z,100094.53
2023-02-23T05:54:09.534Z,100092.63
2023-02-23T05:55:13.277Z,100092.88
2023-02-23T05:56:20.474Z,100096.94
2023-02-23T05:57:22.966Z,100092.56
2023-02-23T05:58:24.966Z,100092.31
2023-02-23T05:59:28.760Z,100101.31
2023-02-23T06:00:30.337Z,100092.88
2023-02-23T06:01:33.212Z,100092.59
2023-02-23T06:02:35.212Z,100097.22
2023-02-23T06:03:37.832Z,100096.47
2023-02-23T06:04:39.477Z,100094.75
2023-02-23T06:05:42.210Z,100093.97
2023-02-23T06:06:45.392Z,100097.50
2023-02-23T06:07:46.924Z,100093.69
2023-02-23T06:08:49.766Z,100102.03
2023-02-23T06:09:51.400Z,100097.88
2023-02-23T06:10:54.131Z,100094.59
2023-02-23T06:11:55.939Z,100103.25
2023-02-23T06:12:58.525Z,100096.69
2023-02-23T06:14:00.690Z,100100.19
2023-02-23T06:15:04.949Z,100104.31
2023-02-23T06:16:08.406Z,100103.50
2023-02-23T06:17:11.579Z,100103.19
2023-02-23T06:18:13.148Z,100103.72
2023-02-23T06:19:15.612Z,100110.22
2023-02-23T06:20:17.284Z,100111.03
2023-02-23T06:21:20.768Z,100108.03
2023-02-23T06:22:23.024Z,100106.38
2023-02-23T06:23:25.509Z,100105.84
2023-02-23T06:24:28.683Z,100117.00
2023-02-23T06:25:31.194Z,100109.94
2023-02-23T06:26:33.252Z,100117.63
2023-02-23T06:27:36.039Z,100115.41
2023-02-23T06:28:37.635Z,100116.75
2023-02-23T06:29:40.051Z,100112.38
2023-02-23T06:30:42.980Z,100115.31
2023-02-23T06:31:45.541Z,100129.81
2023-02-23T06:32:47.086Z,100120.59
2023-02-23T06:33:49.707Z,100120.84
2023-02-23T06:34:51.183Z,100117.91
2023-02-23T06:35:54.788Z,100119.84
2023-02-23T06:36:57.436Z,100118.59
2023-02-23T06:37:58.943Z,100115.56
2023-02-23T06:39:02.032Z,100114.97
2023-02-23T06:40:04.955Z,100118.28
2023-02-23T06:41:09.058Z,100114.13
2023-02-23T06:42:10.581Z,100120.06
2023-02-23T06:43:13.260Z,100119.25
2023-02-23T06:44:15.663Z,100120.25
2023-02-23T06:45:19.169Z,100117.31
2023-02-23T06:46:23.143Z,100116.47
2023-02-23T06:47:24.659Z,100116.75
2023-02-23T06:48:27.187Z,100122.72
2023-02-23T06:49:28.890Z,100117.81
2023-02-23T06:50:31.537Z,100130.81
2023-02-23T06:51:33.006Z,100130.75
2023-02-23T06:52:35.461Z,100129.78
2023-02-23T06:53:38.314Z,100129.28
2023-02-23T06:54:40.055Z,100133.38
2023-02-23T06:55:42.535Z,100125.28
2023-02-23T06:56:44.091Z,100135.13
2023-02-23T06:57:49.693Z,100137.56
2023-02-23T06:58:51.668Z,100137.94
2023-02-23T06:59:54.452Z,100131.63
2023-02-23T07:00:58.512Z,100139.78
2023-02-23T07:02:01.857Z,100145.19
2023-02-23T07:03:04.605Z,100131.63
2023-02-23T07:04:06.264Z,100130.47
2023-02-23T07:05:09.880Z,100127.19
2023-02-23T07:06:11.425Z,100142.19
2023-02-23T07:07:14.065Z,100134.78
2023-02-23T07:08:16.316Z,100140.97
2023-02-23T07:09:19.078Z,100142.53
2023-02-23T07:10:20.944Z,100136.56
2023-02-23T07:11:23.454Z,100135.22
2023-02-23T07:12:24.953Z,100143.59
2023-02-23T07:13:27.357Z,100143.34
2023-02-23T07:14:28.898Z,100148.47
2023-02-23T07:15:31.339Z,100143.84
2023-02-23T07:16:32.897Z,100140.81
2023-02-23T07:17:37.103Z,100133.47
2023-02-23T07:18:38.803Z,100125.06
2023-02-23T07:19:44.680Z,100128.59
2023-02-23T07:20:47.093Z,100131.88
2023-02-23T07:21:48.862Z,100138.63
2023-02-23T07:22:52.178Z,100133.53
2023-02-23T07:23:53.718Z,100132.09
2023-02-23T07:24:56.128Z,100129.13
2023-02-23T07:25:58.086Z,100136.38
2023-02-23T07:27:00.533Z,100132.59
2023-02-23T07:28:02.886Z,100137.47
2023-02-23T07:29:05.322Z,100142.00
2023-02-23T07:30:08.750Z,100142.19
2023-02-23T07:31:11.309Z,100143.47
2023-02-23T07:32:13.063Z,100146.84
2023-02-23T07:33:16.990Z,100149.47
2023-02-23T07:34:18.522Z,100146.41
2023-02-23T07:35:21.561Z,100146.16
2023-02-23T07:36:23.806Z,100146.88
2023-02-23T07:37:26.568Z,100142.53
2023-02-23T07:38:28.678Z,100142.88
2023-02-23T07:39:31.258Z,100147.81
2023-02-23T07:40:32.837Z,100146.69
2023-02-23T07:41:35.329Z,100138.19
2023-02-23T07:42:37.207Z,100146.44
2023-02-23T07:43:39.638Z,100151.44
2023-02-23T07:44:42.142Z,100147.88
2023-02-23T07:45:45.606Z,100148.66
2023-02-23T07:46:49.483Z,100156.97
2023-02-23T07:47:51.064Z,100151.09
2023-02-23T07:48:54.972Z,100150.50
2023-02-23T07:49:57.379Z,100154.09
2023-02-23T07:51:00.156Z,100158.59
2023-02-23T07:52:01.927Z,100155.19
2023-02-23T07:53:04.386Z,100154.75
2023-02-23T07:54:06.649Z,100148.97
2023-02-23T07:55:10.863Z,100155.84
2023-02-23T07:56:12.901Z,100155.56
2023-02-23T07:57:15.615Z,100151.91
2023-02-23T07:58:17.101Z,100149.78
2023-02-23T07:59:19.569Z,100157.72
2023-02-23T08:00:21.790Z,100149.69
2023-02-23T08:01:24.407Z,100154.22
2023-02-23T08:02:26.232Z,100143.56
2023-02-23T08:03:28.902Z,100152.78
2023-02-23T08:04:31.802Z,100151.41
2023-02-23T08:05:34.417Z,100153.56
2023-02-23T08:06:35.986Z,100152.03
2023-02-23T08:07:38.694Z,100151.25
2023-02-23T08:08:40.332Z,100154.88
2023-02-23T08:09:42.832Z,100155.50
2023-02-23T08:10:44.344Z,100150.22
2023-02-23T08:11:46.763Z,100154.50
2023-02-23T08:12:48.314Z,100152.88
2023-02-23T08:13:50.759Z,100149.69
2023-02-23T08:14:53.588Z,100153.81
2023-02-23T08:15:56.112Z,100151.63
2023-02-23T08:16:57.693Z,100156.81
2023-02-23T08:18:00.746Z,100157.03
2023-02-23T08:19:02.849Z,100148.31
2023-02-23T08:20:08.171Z,100147.31
2023-02-23T08:21:09.681Z,100158.81
2023-02-23T08:22:12.126Z,100151.00
2023-02-23T08:23:13.676Z,100156.94
2023-02-23T08:24:16.168Z,100155.72
2023-02-23T08:25:19.008Z,100154.72
2023-02-23T08:26:21.460Z,100156.25
2023-02-23T08:27:24.012Z,100157.50
2023-02-23T08:28:25.540Z,100158.09
2023-02-23T08:29:28.092Z,100155.88
2023-02-23T08:30:30.658Z,100157.13
2023-02-23T08:31:33.352Z,100160.84
2023-02-23T08:32:35.890Z,100159.94
2023-02-23T08:33:39.191Z,100161.16
2023-02-23T08:34:43.227Z,100150.59
2023-02-23T08:35:46.129Z,100159.78
2023-02-23T08:36:48.563Z,100159.47
2023-02-23T08:37:50.216Z,100160.88
2023-02-23T08:38:54.199Z,100162.19
2023-02-23T08:39:56.726Z,100159.72
2023-02-23T08:40:59.994Z,100166.03
2023-02-23T08:42:02.927Z,100168.69
2023-02-23T08:43:04.376Z,100171.25
2023-02-23T08:44:07.125Z,100167.72
2023-02-23T08:45:10.034Z,100169.34
2023-02-23T08:46:12.805Z,100170.50
2023-02-23T08:47:16.353Z,100172.03
2023-02-23T08:48:18.792Z,100154.31
2023-02-23T08:49:21.435Z,100165.09
2023-02-23T08:50:27.265Z,100167.25
2023-02-23T08:51:31.382Z,100172.84
2023-02-23T08:52:32.927Z,100165.25
2023-02-23T08:53:35.396Z,100165.06
2023-02-23T08:54:37.786Z,100166.44
2023-02-23T08:55:39.280Z,100168.31
2023-02-23T08:56:42.175Z,100176.53
2023-02-23T08:57:44.851Z,100176.66
2023-02-23T08:58:47.602Z,100164.06
2023-02-23T08:59:49.152Z,100163.84
2023-02-23T09:00:51.687Z,100168.94
2023-02-23T09:01:56.168Z,100167.63
2023-02-23T09:02:58.611Z,100170.78
2023-02-23T09:04:00.419Z,100164.38
2023-02-23T09:05:02.861Z,100157.84
2023-02-23T09:06:11.085Z,100167.81
2023-02-23T09:07:19.265Z,100170.22
2023-02-23T09:08:22.873Z,100169.53
2023-02-23T09:09:25.321Z,100171.09
2023-02-23T09:10:29.012Z,100167.44
2023-02-23T09:11:31.410Z,100171.31
2023-02-23T09:12:32.988Z,100164.94
2023-02-23T09:13:36.049Z,100170.13
2023-02-23T09:14:37.542Z,100169.41
2023-02-23T09:15:40.841Z,100165.06
2023-02-23T09:16:44.479Z,100172.66
2023-02-23T09:17:47.263Z,100168.59
2023-02-23T09:18:50.099Z,100163.75
2023-02-23T09:19:51.858Z,100166.50
2023-02-23T09:20:54.672Z,100175.09
2023-02-23T09:21:56.229Z,100165.78
2023-02-23T09:23:00.186Z,100169.91
2023-02-23T09:24:02.392Z,100171.72
2023-02-23T09:25:05.623Z,100171.63
2023-02-23T09:26:08.860Z,100177.22
2023-02-23T09:27:12.731Z,100177.94
2023-02-23T09:28:17.031Z,100175.56
2023-02-23T09:29:19.421Z,100168.47
2023-02-23T09:30:21.429Z,100172.09
2023-02-23T09:31:24.938Z,100175.91
2023-02-23T09:32:26.714Z,100175.47
2023-02-23T09:33:29.266Z,100177.59
2023-02-23T09:34:30.748Z,100178.63
2023-02-23T09:35:34.441Z,100176.78
2023-02-23T09:36:36.985Z,100179.75
2023-02-23T09:37:38.468Z,100176.41
2023-02-23T09:38:42.231Z,100183.81
2023-02-23T09:39:45.645Z,100181.03
2023-02-23T09:40:49.822Z,100172.72
2023-02-23T09:42:00.569Z,100170.28
2023-02-23T09:43:06.895Z,100178.69
2023-02-23T09:44:16.655Z,100184.69
2023-02-23T09:45:29.896Z,100178.56
2023-02-23T09:46:38.812Z,100181.25
2023-02-23T09:47:50.460Z,100183.69
2023-02-23T09:48:53.022Z,100184.91
2023-02-23T09:49:58.857Z,100181.16
2023-02-23T09:51:06.106Z,100180.72
2023-02-23T09:52:15.880Z,100183.03
2023-02-23T09:53:29.347Z,100182.44
2023-02-23T09:54:34.439Z,100182.53
2023-02-23T09:55:41.436Z,100181.03
2023-02-23T09:56:48.509Z,100184.84
2023-02-23T09:57:50.582Z,100180.97
2023-02-23T09:58:53.306Z,100182.13
2023-02-23T09:59:54.895Z,100185.19
2023-02-23T10:01:17.988Z,100187.72
2023-02-23T10:02:25.369Z,100181.44
2023-02-23T10:03:30.722Z,100181.63
2023-02-23T10:04:37.883Z,100181.81
2023-02-23T10:05:44.430Z,100180.31
2023-02-23T10:06:53.390Z,100189.38
2023-02-23T10:07:58.789Z,100185.28
2023-02-23T10:09:14.448Z,100188.66
2023-02-23T10:10:27.703Z,100194.06
2023-02-23T10:11:40.349Z,100200.03
2023-02-23T10:12:55.259Z,100192.28
2023-02-23T10:14:11.526Z,100188.06
2023-02-23T10:15:18.891Z,100198.50
2023-02-23T10:16:25.559Z,100192.44
2023-02-23T10:17:39.986Z,100199.34
2023-02-23T10:18:47.949Z,100189.91
2023-02-23T10:19:56.551Z,100190.78
2023-02-23T10:21:04.159Z,100195.41
2023-02-23T10:22:09.188Z,100188.91
2023-02-23T10:23:16.085Z,100197.16
2023-02-23T10:24:25.231Z,100194.56
2023-02-23T10:25:36.487Z,100193.81
2023-02-23T10:26:44.064Z,100195.72
2023-02-23T10:27:49.480Z,100187.38
2023-02-23T10:28:53.764Z,100188.69
2023-02-23T10:29:58.705Z,100190.59
2023-02-23T10:31:01.999Z,100190.38
2023-02-23T10:32:08.865Z,100188.72
2023-02-23T10:33:17.002Z,100184.56
2023-02-23T10:34:18.648Z,100187.59
2023-02-23T10:35:23.457Z,100182.63
2023-02-23T10:36:36.661Z,100176.88
2023-02-23T10:37:39.342Z,100178.66
2023-02-23T10:38:41.093Z,100182.44
2023-02-23T10:39:43.776Z,100187.69
2023-02-23T10:40:51.386Z,100180.00
2023-02-23T10:41:55.769Z,100176.84
2023-02-23T10:43:01.161Z,100186.38
2023-02-23T10:44:15.805Z,100177.44
2023-02-23T10:45:23.618Z,100182.59
2023-02-23T10:46:32.582Z,100186.38
2023-02-23T10:47:37.606Z,100181.34
2023-02-23T10:48:43.195Z,100193.31
2023-02-23T10:49:48.425Z,100182.34
2023-02-23T10:50:51.811Z,100182.91
2023-02-23T10:51:58.098Z,100178.50
2023-02-23T10:53:05.533Z,100183.38
2023-02-23T10:54:38.900Z,100180.94
2023-02-23T10:55:41.435Z,100183.25
2023-02-23T10:56:46.399Z,100177.47
2023-02-23T10:57:49.124Z,100180.34
2023-02-23T10:58:53.709Z,100179.19
2023-02-23T11:00:01.056Z,100177.09
2023-02-23T11:01:06.311Z,100181.06
2023-02-23T11:02:21.820Z,100174.66
2023-02-23T11:03:29.413Z,100184.72
2023-02-23T11:04:35.031Z,100181.72
2023-02-23T11:05:45.463Z,100176.00
2023-02-23T11:06:48.622Z,100178.50
2023-02-23T11:07:51.542Z,100167.38
2023-02-23T11:08:54.602Z,100167.88
2023-02-23T11:09:56.622Z,100170.06
2023-02-23T11:11:15.985Z,100174.41
2023-02-23T11:12:25.569Z,100161.16
2023-02-23T11:13:29.163Z,100167.06
2023-02-23T11:14:33.141Z,100162.66
2023-02-23T11:15:50.615Z,100158.09
2023-02-23T11:16:57.043Z,100174.00
2023-02-23T11:18:00.684Z,100163.91
2023-02-23T11:19:05.230Z,100160.41
2023-02-23T11:20:24.868Z,100154.53
2023-02-23T11:21:33.532Z,100156.75
2023-02-23T11:22:37.182Z,100153.44
2023-02-23T11:23:41.586Z,100157.16
2023-02-23T11:24:45.780Z,100152.31
2023-02-23T11:25:49.556Z,100161.38
2023-02-23T11:26:53.989Z,100156.84
2023-02-23T11:27:58.748Z,100148.59
2023-02-23T11:29:05.656Z,100153.44
2023-02-23T11:30:12.981Z,100159.25
2023-02-23T11:31:19.199Z,100153.44
2023-02-23T11:32:24.632Z,100158.75
2023-02-23T11:33:31.535Z,100147.28
2023-02-23T11:34:41.030Z,100145.41
2023-02-23T11:35:42.707Z,100151.06
2023-02-23T11:36:45.213Z,100153.13
2023-02-23T11:37:47.070Z,100150.00
2023-02-23T11:39:02.046Z,100145.63
2023-02-23T11:40:20.268Z,100142.56
2023-02-23T11:41:25.044Z,100149.41
2023-02-23T11:42:33.450Z,100140.97
2023-02-23T11:43:36.385Z,100143.91
2023-02-23T11:44:38.950Z,100142.78
2023-02-23T11:45:48.278Z,100140.19
2023-02-23T11:46:51.442Z,100139.53
2023-02-23T11:47:56.200Z,100138.41
2023-02-23T11:49:01.900Z,100143.09
2023-02-23T11:50:05.936Z,100134.66
2023-02-23T11:51:07.698Z,100138.56
2023-02-23T11:52:16.144Z,100135.50
2023-02-23T11:53:22.295Z,100129.16
2023-02-23T11:54:28.442Z,100130.97
2023-02-23T11:55:32.758Z,100132.38
2023-02-23T11:56:35.515Z,100135.41
2023-02-23T11:57:38.271Z,100131.38
2023-02-23T11:58:44.827Z,100134.47
2023-02-23T11:59:48.123Z,100139.03
2023-02-23T12:00:58.616Z,100137.44
2023-02-23T12:02:07.637Z,100128.81
2023-02-23T12:03:22.860Z,100128.03
2023-02-23T12:04:30.164Z,100131.13
2023-02-23T12:05:34.152Z,100128.19
2023-02-23T12:06:39.129Z,100129.31
2023-02-23T12:07:47.620Z,100125.63
2023-02-23T12:08:54.674Z,100131.44
2023-02-23T12:10:03.605Z,100127.38
2023-02-23T12:11:13.502Z,100125.44
2023-02-23T12:12:20.402Z,100135.81
2023-02-23T12:13:30.067Z,100123.00
2023-02-23T12:14:41.140Z,100129.97
2023-02-23T12:15:50.547Z,100126.25
2023-02-23T12:16:55.966Z,100120.34
2023-02-23T12:18:04.154Z,100129.13
2023-02-23T12:19:21.768Z,100132.06
2023-02-23T12:20:28.030Z,100115.56
2023-02-23T12:21:37.373Z,100123.63
2023-02-23T12:22:44.608Z,100123.00
2023-02-23T12:23:52.503Z,100123.31
2023-02-23T12:25:02.796Z,100119.47
2023-02-23T12:26:11.753Z,100118.78
2023-02-23T12:27:18.448Z,100119.66
2023-02-23T12:28:27.282Z,100128.53
2023-02-23T12:29:36.238Z,100127.84
2023-02-23T12:30:46.337Z,100125.31
2023-02-23T12:31:54.226Z,100117.28
2023-02-23T12:33:00.492Z,100126.22
2023-02-23T12:34:12.464Z,100119.22
2023-02-23T12:35:21.379Z,100113.59
2023-02-23T12:36:31.695Z,100110.13
2023-02-23T12:37:39.897Z,100110.31
2023-02-23T12:38:51.732Z,100108.34
2023-02-23T12:39:59.529Z,100109.75